Rayburn, Texas
Current Conditions -  °F | °C
As of 11:35 PM on Sunday 23 Nov 2014 (Local Time) from K6R3 Reporting Station
Clear Clear  
Wind Chill: 57°   Ceiling: Unl
Heat Index: 57°   Visibility: 10mi
Dew Point: 55°   Wind: 0mph
Humidity: 92%   Direction: NA
Pressure: 29.75"   Gusts: NA
Location:  30.2945°N, 94.9711°W
Report Text: K6R3 240535Z AUTO 00000KT 10SM CLR 14/13 A2975 RMK AO2 T01390127
Loading
Personal Weather Stations






























Interactive Weather Map New forecast layout! Learn more

10-Day Weather Forecast

Advertisements
Track Severe Weather on mobile